sensor_id;sensor_type;location;lat;lon;timestamp;P1;durP1;ratioP1;P2;durP2;ratioP2
54845;SDS011;53889;50.084;8.646;2024-03-22T00:01:43;14.38;;;9.50;;
54845;SDS011;53889;50.084;8.646;2024-03-22T00:04:10;15.10;;;9.18;;
54845;SDS011;53889;50.084;8.646;2024-03-22T00:06:36;13.77;;;9.23;;
54845;SDS011;53889;50.084;8.646;2024-03-22T00:09:03;16.02;;;10.18;;
54845;SDS011;53889;50.084;8.646;2024-03-22T00:11:30;14.75;;;9.25;;
54845;SDS011;53889;50.084;8.646;2024-03-22T00:13:57;13.48;;;9.43;;
54845;SDS011;53889;50.084;8.646;2024-03-22T00:16:22;12.93;;;9.30;;
54845;SDS011;53889;50.084;8.646;2024-03-22T00:18:49;15.43;;;10.40;;
54845;SDS011;53889;50.084;8.646;2024-03-22T00:21:15;15.63;;;10.60;;
54845;SDS011;53889;50.084;8.646;2024-03-22T00:23:42;13.25;;;9.75;;
54845;SDS011;53889;50.084;8.646;2024-03-22T00:26:08;15.02;;;9.68;;
54845;SDS011;53889;50.084;8.646;2024-03-22T00:28:36;13.60;;;8.63;;
54845;SDS011;53889;50.084;8.646;2024-03-22T00:31:02;11.80;;;8.35;;
54845;SDS011;53889;50.084;8.646;2024-03-22T00:33:29;15.82;;;9.80;;
54845;SDS011;53889;50.084;8.646;2024-03-22T00:35:55;15.10;;;9.48;;
54845;SDS011;53889;50.084;8.646;2024-03-22T00:38:21;14.70;;;8.88;;
54845;SDS011;53889;50.084;8.646;2024-03-22T00:40:47;14.70;;;9.73;;
54845;SDS011;53889;50.084;8.646;2024-03-22T00:43:14;13.18;;;9.35;;
54845;SDS011;53889;50.084;8.646;2024-03-22T00:45:41;15.63;;;10.52;;
54845;SDS011;53889;50.084;8.646;2024-03-22T00:48:08;13.00;;;8.77;;
54845;SDS011;53889;50.084;8.646;2024-03-22T00:50:33;14.80;;;9.30;;
54845;SDS011;53889;50.084;8.646;2024-03-22T00:53:00;13.43;;;8.88;;
54845;SDS011;53889;50.084;8.646;2024-03-22T00:55:28;15.65;;;9.65;;
54845;SDS011;53889;50.084;8.646;2024-03-22T00:57:55;14.30;;;9.63;;
54845;SDS011;53889;50.084;8.646;2024-03-22T01:00:20;13.63;;;9.05;;
54845;SDS011;53889;50.084;8.646;2024-03-22T01:02:49;14.43;;;9.07;;
54845;SDS011;53889;50.084;8.646;2024-03-22T01:05:15;18.40;;;9.60;;
54845;SDS011;53889;50.084;8.646;2024-03-22T01:07:42;14.18;;;9.73;;
54845;SDS011;53889;50.084;8.646;2024-03-22T01:10:08;15.52;;;9.77;;
54845;SDS011;53889;50.084;8.646;2024-03-22T01:12:34;16.33;;;9.82;;
54845;SDS011;53889;50.084;8.646;2024-03-22T01:15:00;16.05;;;10.10;;
54845;SDS011;53889;50.084;8.646;2024-03-22T01:17:27;14.88;;;10.23;;
54845;SDS011;53889;50.084;8.646;2024-03-22T01:19:54;16.55;;;9.60;;
54845;SDS011;53889;50.084;8.646;2024-03-22T01:22:21;15.35;;;9.23;;
54845;SDS011;53889;50.084;8.646;2024-03-22T01:24:48;12.95;;;8.50;;
54845;SDS011;53889;50.084;8.646;2024-03-22T01:27:15;14.60;;;8.77;;
54845;SDS011;53889;50.084;8.646;2024-03-22T01:29:40;17.30;;;10.50;;
54845;SDS011;53889;50.084;8.646;2024-03-22T01:32:07;16.10;;;10.20;;
54845;SDS011;53889;50.084;8.646;2024-03-22T01:34:33;15.07;;;10.02;;
54845;SDS011;53889;50.084;8.646;2024-03-22T01:37:01;14.60;;;10.13;;
54845;SDS011;53889;50.084;8.646;2024-03-22T01:39:27;15.00;;;9.70;;
54845;SDS011;53889;50.084;8.646;2024-03-22T01:41:54;16.13;;;10.80;;
54845;SDS011;53889;50.084;8.646;2024-03-22T01:44:26;19.23;;;12.45;;
54845;SDS011;53889;50.084;8.646;2024-03-22T01:46:53;18.10;;;11.65;;
54845;SDS011;53889;50.084;8.646;2024-03-22T01:49:19;16.10;;;10.80;;
54845;SDS011;53889;50.084;8.646;2024-03-22T01:51:47;16.83;;;10.82;;
54845;SDS011;53889;50.084;8.646;2024-03-22T01:54:15;18.33;;;11.65;;
54845;SDS011;53889;50.084;8.646;2024-03-22T01:56:42;19.98;;;12.02;;
54845;SDS011;53889;50.084;8.646;2024-03-22T01:59:08;18.65;;;12.48;;
54845;SDS011;53889;50.084;8.646;2024-03-22T02:01:35;18.77;;;12.35;;
54845;SDS011;53889;50.084;8.646;2024-03-22T02:04:01;23.23;;;13.77;;
54845;SDS011;53889;50.084;8.646;2024-03-22T02:06:28;22.73;;;13.60;;
54845;SDS011;53889;50.084;8.646;2024-03-22T02:08:54;20.80;;;12.25;;
54845;SDS011;53889;50.084;8.646;2024-03-22T02:11:23;21.05;;;13.18;;
54845;SDS011;53889;50.084;8.646;2024-03-22T02:13:51;18.63;;;12.02;;
54845;SDS011;53889;50.084;8.646;2024-03-22T02:16:18;21.88;;;13.60;;
54845;SDS011;53889;50.084;8.646;2024-03-22T02:18:43;20.90;;;13.50;;
54845;SDS011;53889;50.084;8.646;2024-03-22T02:21:10;21.20;;;11.93;;
54845;SDS011;53889;50.084;8.646;2024-03-22T02:23:38;18.45;;;11.57;;
54845;SDS011;53889;50.084;8.646;2024-03-22T02:26:06;20.67;;;12.10;;
54845;SDS011;53889;50.084;8.646;2024-03-22T02:28:33;20.02;;;11.43;;
54845;SDS011;53889;50.084;8.646;2024-03-22T02:31:01;19.60;;;12.88;;
54845;SDS011;53889;50.084;8.646;2024-03-22T02:33:28;18.15;;;11.50;;
54845;SDS011;53889;50.084;8.646;2024-03-22T02:35:55;21.45;;;12.98;;
54845;SDS011;53889;50.084;8.646;2024-03-22T02:38:21;21.83;;;13.13;;
54845;SDS011;53889;50.084;8.646;2024-03-22T02:40:51;19.10;;;12.15;;
54845;SDS011;53889;50.084;8.646;2024-03-22T02:43:17;17.48;;;11.88;;
54845;SDS011;53889;50.084;8.646;2024-03-22T02:45:46;18.52;;;12.23;;
54845;SDS011;53889;50.084;8.646;2024-03-22T02:48:12;19.75;;;12.55;;
54845;SDS011;53889;50.084;8.646;2024-03-22T02:50:39;20.05;;;12.85;;
54845;SDS011;53889;50.084;8.646;2024-03-22T02:53:05;17.45;;;11.90;;
54845;SDS011;53889;50.084;8.646;2024-03-22T02:55:35;19.55;;;13.13;;
54845;SDS011;53889;50.084;8.646;2024-03-22T02:58:04;19.92;;;12.75;;
54845;SDS011;53889;50.084;8.646;2024-03-22T03:00:31;21.05;;;13.77;;
54845;SDS011;53889;50.084;8.646;2024-03-22T03:02:58;19.85;;;13.20;;
54845;SDS011;53889;50.084;8.646;2024-03-22T03:05:25;21.00;;;12.80;;
54845;SDS011;53889;50.084;8.646;2024-03-22T03:07:51;18.88;;;12.55;;
54845;SDS011;53889;50.084;8.646;2024-03-22T03:10:18;23.02;;;13.30;;
54845;SDS011;53889;50.084;8.646;2024-03-22T03:12:43;21.92;;;12.73;;
54845;SDS011;53889;50.084;8.646;2024-03-22T03:15:11;20.83;;;12.95;;
54845;SDS011;53889;50.084;8.646;2024-03-22T03:17:37;20.50;;;13.50;;
54845;SDS011;53889;50.084;8.646;2024-03-22T03:20:04;22.38;;;13.88;;
54845;SDS011;53889;50.084;8.646;2024-03-22T03:22:33;21.00;;;14.05;;
54845;SDS011;53889;50.084;8.646;2024-03-22T03:24:59;22.55;;;13.80;;
54845;SDS011;53889;50.084;8.646;2024-03-22T03:27:25;24.05;;;15.13;;
54845;SDS011;53889;50.084;8.646;2024-03-22T03:29:52;24.75;;;14.48;;
54845;SDS011;53889;50.084;8.646;2024-03-22T03:32:19;24.55;;;14.18;;
54845;SDS011;53889;50.084;8.646;2024-03-22T03:34:46;23.45;;;13.85;;
54845;SDS011;53889;50.084;8.646;2024-03-22T03:37:11;27.15;;;14.88;;
54845;SDS011;53889;50.084;8.646;2024-03-22T03:39:38;24.38;;;15.27;;
54845;SDS011;53889;50.084;8.646;2024-03-22T03:42:04;25.58;;;14.73;;
54845;SDS011;53889;50.084;8.646;2024-03-22T03:44:31;25.70;;;15.18;;
54845;SDS011;53889;50.084;8.646;2024-03-22T03:46:56;26.65;;;14.57;;
54845;SDS011;53889;50.084;8.646;2024-03-22T03:49:25;23.58;;;15.20;;
54845;SDS011;53889;50.084;8.646;2024-03-22T03:51:50;25.17;;;14.82;;
54845;SDS011;53889;50.084;8.646;2024-03-22T03:54:17;24.80;;;14.95;;
54845;SDS011;53889;50.084;8.646;2024-03-22T03:56:43;23.15;;;14.55;;
54845;SDS011;53889;50.084;8.646;2024-03-22T03:59:09;21.52;;;13.60;;
54845;SDS011;53889;50.084;8.646;2024-03-22T04:01:35;21.98;;;14.02;;
54845;SDS011;53889;50.084;8.646;2024-03-22T04:04:02;21.63;;;14.23;;
54845;SDS011;53889;50.084;8.646;2024-03-22T04:06:29;23.08;;;14.70;;
54845;SDS011;53889;50.084;8.646;2024-03-22T04:08:56;25.15;;;14.10;;
54845;SDS011;53889;50.084;8.646;2024-03-22T04:11:22;21.88;;;13.65;;
54845;SDS011;53889;50.084;8.646;2024-03-22T04:13:49;22.20;;;14.43;;
54845;SDS011;53889;50.084;8.646;2024-03-22T04:16:15;20.33;;;14.13;;
54845;SDS011;53889;50.084;8.646;2024-03-22T04:18:41;22.35;;;14.20;;
54845;SDS011;53889;50.084;8.646;2024-03-22T04:21:08;23.45;;;14.52;;
54845;SDS011;53889;50.084;8.646;2024-03-22T04:23:36;20.52;;;13.93;;
54845;SDS011;53889;50.084;8.646;2024-03-22T04:26:02;21.45;;;14.20;;
54845;SDS011;53889;50.084;8.646;2024-03-22T04:28:29;21.92;;;14.20;;
54845;SDS011;53889;50.084;8.646;2024-03-22T04:30:56;23.25;;;14.15;;
54845;SDS011;53889;50.084;8.646;2024-03-22T04:33:24;24.38;;;14.40;;
54845;SDS011;53889;50.084;8.646;2024-03-22T04:35:50;22.00;;;13.32;;
54845;SDS011;53889;50.084;8.646;2024-03-22T04:38:16;21.42;;;14.07;;
54845;SDS011;53889;50.084;8.646;2024-03-22T04:40:45;20.02;;;13.32;;
54845;SDS011;53889;50.084;8.646;2024-03-22T04:43:12;22.02;;;14.00;;
54845;SDS011;53889;50.084;8.646;2024-03-22T04:45:38;23.15;;;13.10;;
54845;SDS011;53889;50.084;8.646;2024-03-22T04:48:07;22.17;;;14.13;;
54845;SDS011;53889;50.084;8.646;2024-03-22T04:50:33;22.90;;;13.95;;
54845;SDS011;53889;50.084;8.646;2024-03-22T04:53:00;21.05;;;13.05;;
54845;SDS011;53889;50.084;8.646;2024-03-22T04:55:26;22.83;;;13.52;;
54845;SDS011;53889;50.084;8.646;2024-03-22T04:57:54;21.50;;;13.27;;
54845;SDS011;53889;50.084;8.646;2024-03-22T05:00:19;20.17;;;13.57;;
54845;SDS011;53889;50.084;8.646;2024-03-22T05:02:46;23.77;;;14.90;;
54845;SDS011;53889;50.084;8.646;2024-03-22T05:05:12;22.17;;;13.70;;
54845;SDS011;53889;50.084;8.646;2024-03-22T05:07:39;24.00;;;15.32;;
54845;SDS011;53889;50.084;8.646;2024-03-22T05:10:05;21.08;;;13.23;;
54845;SDS011;53889;50.084;8.646;2024-03-22T05:12:34;24.65;;;14.75;;
54845;SDS011;53889;50.084;8.646;2024-03-22T05:15:01;23.70;;;13.90;;
54845;SDS011;53889;50.084;8.646;2024-03-22T05:17:28;22.45;;;14.13;;
54845;SDS011;53889;50.084;8.646;2024-03-22T05:19:54;26.73;;;14.80;;
54845;SDS011;53889;50.084;8.646;2024-03-22T05:22:21;22.10;;;13.90;;
54845;SDS011;53889;50.084;8.646;2024-03-22T05:24:47;21.38;;;13.88;;
54845;SDS011;53889;50.084;8.646;2024-03-22T05:27:14;25.02;;;14.23;;
54845;SDS011;53889;50.084;8.646;2024-03-22T05:29:40;24.70;;;13.80;;
54845;SDS011;53889;50.084;8.646;2024-03-22T05:32:08;23.85;;;14.93;;
54845;SDS011;53889;50.084;8.646;2024-03-22T05:34:33;23.67;;;14.07;;
54845;SDS011;53889;50.084;8.646;2024-03-22T05:37:01;22.88;;;14.30;;
54845;SDS011;53889;50.084;8.646;2024-03-22T05:39:27;23.65;;;14.60;;
54845;SDS011;53889;50.084;8.646;2024-03-22T05:41:54;23.00;;;13.68;;
54845;SDS011;53889;50.084;8.646;2024-03-22T05:44:21;25.98;;;13.95;;
54845;SDS011;53889;50.084;8.646;2024-03-22T05:46:48;22.23;;;13.60;;
54845;SDS011;53889;50.084;8.646;2024-03-22T05:49:19;22.38;;;13.38;;
54845;SDS011;53889;50.084;8.646;2024-03-22T05:51:46;23.20;;;14.52;;
54845;SDS011;53889;50.084;8.646;2024-03-22T05:54:12;23.83;;;14.20;;
54845;SDS011;53889;50.084;8.646;2024-03-22T05:56:39;21.33;;;13.38;;
54845;SDS011;53889;50.084;8.646;2024-03-22T05:59:05;26.55;;;17.15;;
54845;SDS011;53889;50.084;8.646;2024-03-22T06:01:31;22.33;;;13.82;;
54845;SDS011;53889;50.084;8.646;2024-03-22T06:03:57;21.52;;;13.40;;
54845;SDS011;53889;50.084;8.646;2024-03-22T06:06:26;19.75;;;12.60;;
54845;SDS011;53889;50.084;8.646;2024-03-22T06:08:52;20.15;;;12.95;;
54845;SDS011;53889;50.084;8.646;2024-03-22T06:11:19;18.25;;;12.52;;
54845;SDS011;53889;50.084;8.646;2024-03-22T06:13:46;17.80;;;11.73;;
54845;SDS011;53889;50.084;8.646;2024-03-22T06:16:13;20.75;;;12.63;;
54845;SDS011;53889;50.084;8.646;2024-03-22T06:18:39;20.23;;;11.68;;
54845;SDS011;53889;50.084;8.646;2024-03-22T06:21:06;19.27;;;12.38;;
54845;SDS011;53889;50.084;8.646;2024-03-22T06:23:33;19.02;;;12.25;;
54845;SDS011;53889;50.084;8.646;2024-03-22T06:26:00;19.60;;;12.13;;
54845;SDS011;53889;50.084;8.646;2024-03-22T06:28:27;18.92;;;11.23;;
54845;SDS011;53889;50.084;8.646;2024-03-22T06:30:55;19.70;;;12.55;;
54845;SDS011;53889;50.084;8.646;2024-03-22T06:33:21;18.17;;;11.57;;
54845;SDS011;53889;50.084;8.646;2024-03-22T06:35:48;20.00;;;11.45;;
54845;SDS011;53889;50.084;8.646;2024-03-22T06:38:13;20.50;;;11.63;;
54845;SDS011;53889;50.084;8.646;2024-03-22T06:40:41;19.50;;;12.15;;
54845;SDS011;53889;50.084;8.646;2024-03-22T06:43:07;19.75;;;12.55;;
54845;SDS011;53889;50.084;8.646;2024-03-22T06:45:35;30.45;;;17.98;;
54845;SDS011;53889;50.084;8.646;2024-03-22T06:48:00;17.98;;;11.82;;
54845;SDS011;53889;50.084;8.646;2024-03-22T06:50:27;19.80;;;11.85;;
54845;SDS011;53889;50.084;8.646;2024-03-22T06:52:53;18.30;;;10.77;;
54845;SDS011;53889;50.084;8.646;2024-03-22T06:55:20;20.33;;;11.38;;
54845;SDS011;53889;50.084;8.646;2024-03-22T06:57:48;16.60;;;10.90;;
54845;SDS011;53889;50.084;8.646;2024-03-22T07:00:16;16.48;;;11.38;;
54845;SDS011;53889;50.084;8.646;2024-03-22T07:02:42;18.92;;;10.98;;
54845;SDS011;53889;50.084;8.646;2024-03-22T07:05:10;20.77;;;12.20;;
54845;SDS011;53889;50.084;8.646;2024-03-22T07:07:36;19.27;;;11.38;;
54845;SDS011;53889;50.084;8.646;2024-03-22T07:10:03;21.98;;;11.52;;
54845;SDS011;53889;50.084;8.646;2024-03-22T07:12:30;17.48;;;11.88;;
54845;SDS011;53889;50.084;8.646;2024-03-22T07:14:59;18.15;;;11.10;;
54845;SDS011;53889;50.084;8.646;2024-03-22T07:17:25;16.95;;;10.70;;
54845;SDS011;53889;50.084;8.646;2024-03-22T07:19:52;19.35;;;11.18;;
54845;SDS011;53889;50.084;8.646;2024-03-22T07:22:18;20.77;;;12.68;;
54845;SDS011;53889;50.084;8.646;2024-03-22T07:24:45;20.48;;;12.30;;
54845;SDS011;53889;50.084;8.646;2024-03-22T07:27:12;20.40;;;12.38;;
54845;SDS011;53889;50.084;8.646;2024-03-22T07:29:40;19.30;;;12.25;;
54845;SDS011;53889;50.084;8.646;2024-03-22T07:32:08;21.30;;;12.55;;
54845;SDS011;53889;50.084;8.646;2024-03-22T07:34:35;20.08;;;12.48;;
54845;SDS011;53889;50.084;8.646;2024-03-22T07:37:01;18.30;;;11.20;;
54845;SDS011;53889;50.084;8.646;2024-03-22T07:39:29;21.98;;;13.07;;
54845;SDS011;53889;50.084;8.646;2024-03-22T07:41:55;18.00;;;10.88;;
54845;SDS011;53889;50.084;8.646;2024-03-22T07:44:21;17.63;;;10.73;;
54845;SDS011;53889;50.084;8.646;2024-03-22T07:46:49;18.80;;;12.43;;
54845;SDS011;53889;50.084;8.646;2024-03-22T07:49:17;20.70;;;12.15;;
54845;SDS011;53889;50.084;8.646;2024-03-22T07:51:43;21.52;;;12.20;;
54845;SDS011;53889;50.084;8.646;2024-03-22T07:54:10;18.77;;;11.32;;
54845;SDS011;53889;50.084;8.646;2024-03-22T07:56:36;18.05;;;10.68;;
54845;SDS011;53889;50.084;8.646;2024-03-22T07:59:03;19.02;;;10.80;;
54845;SDS011;53889;50.084;8.646;2024-03-22T08:01:29;22.52;;;11.25;;
54845;SDS011;53889;50.084;8.646;2024-03-22T08:03:56;17.25;;;10.68;;
54845;SDS011;53889;50.084;8.646;2024-03-22T08:06:23;16.25;;;10.70;;
54845;SDS011;53889;50.084;8.646;2024-03-22T08:08:50;16.77;;;10.52;;
54845;SDS011;53889;50.084;8.646;2024-03-22T08:11:16;15.43;;;10.73;;
54845;SDS011;53889;50.084;8.646;2024-03-22T08:13:43;18.52;;;11.40;;
54845;SDS011;53889;50.084;8.646;2024-03-22T08:16:09;18.55;;;11.38;;
54845;SDS011;53889;50.084;8.646;2024-03-22T08:18:36;17.60;;;11.02;;
54845;SDS011;53889;50.084;8.646;2024-03-22T08:21:03;15.43;;;10.55;;
54845;SDS011;53889;50.084;8.646;2024-03-22T08:23:30;16.80;;;10.48;;
54845;SDS011;53889;50.084;8.646;2024-03-22T08:25:58;16.25;;;10.80;;
54845;SDS011;53889;50.084;8.646;2024-03-22T08:28:23;15.20;;;9.73;;
54845;SDS011;53889;50.084;8.646;2024-03-22T08:30:50;17.13;;;9.40;;
54845;SDS011;53889;50.084;8.646;2024-03-22T08:33:16;16.02;;;9.95;;
54845;SDS011;53889;50.084;8.646;2024-03-22T08:35:44;13.45;;;9.02;;
54845;SDS011;53889;50.084;8.646;2024-03-22T08:38:10;18.48;;;10.82;;
54845;SDS011;53889;50.084;8.646;2024-03-22T08:40:41;13.60;;;8.95;;
54845;SDS011;53889;50.084;8.646;2024-03-22T08:43:07;19.13;;;9.95;;
54845;SDS011;53889;50.084;8.646;2024-03-22T08:45:34;14.18;;;9.20;;
54845;SDS011;53889;50.084;8.646;2024-03-22T08:47:59;15.20;;;8.98;;
54845;SDS011;53889;50.084;8.646;2024-03-22T08:50:26;13.88;;;8.65;;
54845;SDS011;53889;50.084;8.646;2024-03-22T08:52:53;15.10;;;9.15;;
54845;SDS011;53889;50.084;8.646;2024-03-22T08:55:19;13.50;;;8.70;;
54845;SDS011;53889;50.084;8.646;2024-03-22T08:57:47;14.13;;;9.10;;
54845;SDS011;53889;50.084;8.646;2024-03-22T09:00:13;16.35;;;8.88;;
54845;SDS011;53889;50.084;8.646;2024-03-22T09:02:39;15.23;;;8.68;;
54845;SDS011;53889;50.084;8.646;2024-03-22T09:05:07;14.43;;;8.32;;
54845;SDS011;53889;50.084;8.646;2024-03-22T09:07:33;15.40;;;9.13;;
54845;SDS011;53889;50.084;8.646;2024-03-22T09:10:00;13.32;;;8.63;;
54845;SDS011;53889;50.084;8.646;2024-03-22T09:12:26;14.07;;;8.80;;
54845;SDS011;53889;50.084;8.646;2024-03-22T09:14:54;12.07;;;8.82;;
54845;SDS011;53889;50.084;8.646;2024-03-22T09:17:20;11.98;;;7.55;;
54845;SDS011;53889;50.084;8.646;2024-03-22T09:19:46;12.13;;;7.80;;
54845;SDS011;53889;50.084;8.646;2024-03-22T09:22:12;12.15;;;7.30;;
54845;SDS011;53889;50.084;8.646;2024-03-22T09:24:40;13.45;;;7.47;;
54845;SDS011;53889;50.084;8.646;2024-03-22T09:27:06;11.68;;;7.25;;
54845;SDS011;53889;50.084;8.646;2024-03-22T09:29:34;9.25;;;6.75;;
54845;SDS011;53889;50.084;8.646;2024-03-22T09:32:02;11.25;;;7.38;;
54845;SDS011;53889;50.084;8.646;2024-03-22T09:34:29;11.13;;;7.15;;
54845;SDS011;53889;50.084;8.646;2024-03-22T09:36:55;11.18;;;7.45;;
54845;SDS011;53889;50.084;8.646;2024-03-22T09:39:22;11.07;;;6.93;;
54845;SDS011;53889;50.084;8.646;2024-03-22T09:41:48;10.20;;;6.40;;
54845;SDS011;53889;50.084;8.646;2024-03-22T09:44:18;10.57;;;6.63;;
54845;SDS011;53889;50.084;8.646;2024-03-22T09:46:44;11.02;;;6.35;;
54845;SDS011;53889;50.084;8.646;2024-03-22T09:49:14;10.15;;;6.68;;
54845;SDS011;53889;50.084;8.646;2024-03-22T09:51:41;11.25;;;6.80;;
54845;SDS011;53889;50.084;8.646;2024-03-22T09:54:10;10.98;;;5.97;;
54845;SDS011;53889;50.084;8.646;2024-03-22T09:56:36;10.82;;;6.53;;
54845;SDS011;53889;50.084;8.646;2024-03-22T09:59:05;10.48;;;6.80;;
54845;SDS011;53889;50.084;8.646;2024-03-22T10:01:31;9.73;;;6.38;;
54845;SDS011;53889;50.084;8.646;2024-03-22T10:03:59;9.30;;;6.63;;
54845;SDS011;53889;50.084;8.646;2024-03-22T10:06:26;11.50;;;6.53;;
54845;SDS011;53889;50.084;8.646;2024-03-22T10:08:57;8.80;;;5.90;;
54845;SDS011;53889;50.084;8.646;2024-03-22T10:11:25;10.40;;;6.50;;
54845;SDS011;53889;50.084;8.646;2024-03-22T10:13:52;10.75;;;6.32;;
54845;SDS011;53889;50.084;8.646;2024-03-22T10:16:20;10.57;;;6.65;;
54845;SDS011;53889;50.084;8.646;2024-03-22T10:18:47;8.98;;;5.90;;
54845;SDS011;53889;50.084;8.646;2024-03-22T10:21:16;8.63;;;5.18;;
54845;SDS011;53889;50.084;8.646;2024-03-22T10:23:46;7.05;;;5.07;;
54845;SDS011;53889;50.084;8.646;2024-03-22T10:26:13;7.50;;;4.88;;
54845;SDS011;53889;50.084;8.646;2024-03-22T10:28:44;9.98;;;5.10;;
54845;SDS011;53889;50.084;8.646;2024-03-22T10:31:10;8.05;;;5.20;;
54845;SDS011;53889;50.084;8.646;2024-03-22T10:33:38;7.45;;;4.90;;
54845;SDS011;53889;50.084;8.646;2024-03-22T10:36:06;7.30;;;4.80;;
54845;SDS011;53889;50.084;8.646;2024-03-22T10:38:33;7.28;;;4.80;;
54845;SDS011;53889;50.084;8.646;2024-03-22T10:41:04;8.85;;;5.28;;
54845;SDS011;53889;50.084;8.646;2024-03-22T10:43:31;7.93;;;4.38;;
54845;SDS011;53889;50.084;8.646;2024-03-22T10:45:59;8.65;;;4.78;;
54845;SDS011;53889;50.084;8.646;2024-03-22T10:48:29;8.13;;;4.95;;
54845;SDS011;53889;50.084;8.646;2024-03-22T10:50:59;7.45;;;4.90;;
54845;SDS011;53889;50.084;8.646;2024-03-22T10:53:27;7.45;;;5.00;;
54845;SDS011;53889;50.084;8.646;2024-03-22T10:55:57;9.00;;;5.22;;
54845;SDS011;53889;50.084;8.646;2024-03-22T10:58:27;9.02;;;5.22;;
54845;SDS011;53889;50.084;8.646;2024-03-22T11:00:53;7.95;;;5.38;;
54845;SDS011;53889;50.084;8.646;2024-03-22T11:03:22;10.05;;;4.72;;
54845;SDS011;53889;50.084;8.646;2024-03-22T11:05:49;10.48;;;5.43;;
54845;SDS011;53889;50.084;8.646;2024-03-22T11:08:23;8.23;;;5.13;;
54845;SDS011;53889;50.084;8.646;2024-03-22T11:10:49;8.65;;;5.28;;
54845;SDS011;53889;50.084;8.646;2024-03-22T11:13:17;8.23;;;4.97;;
54845;SDS011;53889;50.084;8.646;2024-03-22T11:15:44;7.28;;;4.53;;
54845;SDS011;53889;50.084;8.646;2024-03-22T11:18:13;8.48;;;5.47;;
54845;SDS011;53889;50.084;8.646;2024-03-22T11:20:39;10.20;;;5.50;;
54845;SDS011;53889;50.084;8.646;2024-03-22T11:23:06;8.32;;;5.30;;
54845;SDS011;53889;50.084;8.646;2024-03-22T11:25:32;7.93;;;5.60;;
54845;SDS011;53889;50.084;8.646;2024-03-22T11:27:59;8.27;;;5.68;;
54845;SDS011;53889;50.084;8.646;2024-03-22T11:30:26;8.20;;;5.55;;
54845;SDS011;53889;50.084;8.646;2024-03-22T11:32:54;9.40;;;6.07;;
54845;SDS011;53889;50.084;8.646;2024-03-22T11:35:20;8.05;;;5.50;;
54845;SDS011;53889;50.084;8.646;2024-03-22T11:37:47;8.45;;;5.97;;
54845;SDS011;53889;50.084;8.646;2024-03-22T11:40:14;10.45;;;7.25;;
54845;SDS011;53889;50.084;8.646;2024-03-22T11:42:41;10.35;;;6.78;;
54845;SDS011;53889;50.084;8.646;2024-03-22T11:45:08;12.32;;;6.88;;
54845;SDS011;53889;50.084;8.646;2024-03-22T11:47:38;9.40;;;6.78;;
54845;SDS011;53889;50.084;8.646;2024-03-22T11:50:06;8.50;;;6.40;;
54845;SDS011;53889;50.084;8.646;2024-03-22T11:52:34;10.98;;;6.35;;
54845;SDS011;53889;50.084;8.646;2024-03-22T11:55:00;9.23;;;6.68;;
54845;SDS011;53889;50.084;8.646;2024-03-22T11:57:27;10.82;;;6.78;;
54845;SDS011;53889;50.084;8.646;2024-03-22T11:59:58;10.10;;;6.95;;
54845;SDS011;53889;50.084;8.646;2024-03-22T12:02:25;10.10;;;6.47;;
54845;SDS011;53889;50.084;8.646;2024-03-22T12:04:51;11.38;;;6.88;;
54845;SDS011;53889;50.084;8.646;2024-03-22T12:07:19;10.50;;;6.60;;
54845;SDS011;53889;50.084;8.646;2024-03-22T12:09:45;10.60;;;6.50;;
54845;SDS011;53889;50.084;8.646;2024-03-22T12:12:12;9.23;;;6.50;;
54845;SDS011;53889;50.084;8.646;2024-03-22T12:14:38;10.77;;;6.65;;
54845;SDS011;53889;50.084;8.646;2024-03-22T12:17:05;9.27;;;6.10;;
54845;SDS011;53889;50.084;8.646;2024-03-22T12:19:31;11.18;;;6.65;;
54845;SDS011;53889;50.084;8.646;2024-03-22T12:21:59;10.48;;;6.63;;
54845;SDS011;53889;50.084;8.646;2024-03-22T12:24:26;9.25;;;6.25;;
54845;SDS011;53889;50.084;8.646;2024-03-22T12:26:53;9.90;;;6.57;;
54845;SDS011;53889;50.084;8.646;2024-03-22T12:29:19;9.07;;;6.28;;
54845;SDS011;53889;50.084;8.646;2024-03-22T12:31:46;11.32;;;6.70;;
54845;SDS011;53889;50.084;8.646;2024-03-22T12:34:12;10.27;;;6.20;;
54845;SDS011;53889;50.084;8.646;2024-03-22T12:36:39;10.98;;;7.35;;
54845;SDS011;53889;50.084;8.646;2024-03-22T12:39:05;10.23;;;6.40;;
54845;SDS011;53889;50.084;8.646;2024-03-22T12:41:34;9.23;;;6.40;;
54845;SDS011;53889;50.084;8.646;2024-03-22T12:44:00;10.73;;;6.38;;
54845;SDS011;53889;50.084;8.646;2024-03-22T12:46:27;9.00;;;6.63;;
54845;SDS011;53889;50.084;8.646;2024-03-22T12:48:52;9.98;;;6.50;;
54845;SDS011;53889;50.084;8.646;2024-03-22T12:51:20;9.27;;;6.40;;
54845;SDS011;53889;50.084;8.646;2024-03-22T12:53:46;11.25;;;6.88;;
54845;SDS011;53889;50.084;8.646;2024-03-22T12:56:12;9.57;;;6.82;;
54845;SDS011;53889;50.084;8.646;2024-03-22T12:58:39;10.07;;;6.68;;
54845;SDS011;53889;50.084;8.646;2024-03-22T13:01:06;10.55;;;6.53;;
54845;SDS011;53889;50.084;8.646;2024-03-22T13:03:33;10.43;;;6.90;;
54845;SDS011;53889;50.084;8.646;2024-03-22T13:06:00;10.00;;;6.72;;
54845;SDS011;53889;50.084;8.646;2024-03-22T13:08:26;9.45;;;7.03;;
54845;SDS011;53889;50.084;8.646;2024-03-22T13:10:53;8.88;;;6.35;;
54845;SDS011;53889;50.084;8.646;2024-03-22T13:13:19;10.48;;;7.22;;
54845;SDS011;53889;50.084;8.646;2024-03-22T13:15:47;9.63;;;6.45;;
54845;SDS011;53889;50.084;8.646;2024-03-22T13:18:12;9.32;;;6.30;;
54845;SDS011;53889;50.084;8.646;2024-03-22T13:20:39;10.35;;;6.70;;
54845;SDS011;53889;50.084;8.646;2024-03-22T13:23:06;10.40;;;6.13;;
54845;SDS011;53889;50.084;8.646;2024-03-22T13:25:34;9.07;;;5.70;;
54845;SDS011;53889;50.084;8.646;2024-03-22T13:28:01;8.65;;;6.20;;
54845;SDS011;53889;50.084;8.646;2024-03-22T13:30:30;9.68;;;6.15;;
54845;SDS011;53889;50.084;8.646;2024-03-22T13:32:57;11.15;;;6.78;;
54845;SDS011;53889;50.084;8.646;2024-03-22T13:35:24;10.98;;;6.68;;
54845;SDS011;53889;50.084;8.646;2024-03-22T13:37:50;12.10;;;7.00;;
54845;SDS011;53889;50.084;8.646;2024-03-22T13:40:17;9.80;;;6.57;;
54845;SDS011;53889;50.084;8.646;2024-03-22T13:42:43;10.35;;;5.97;;
54845;SDS011;53889;50.084;8.646;2024-03-22T13:45:09;9.45;;;6.43;;
54845;SDS011;53889;50.084;8.646;2024-03-22T13:47:35;11.38;;;7.38;;
54845;SDS011;53889;50.084;8.646;2024-03-22T13:50:04;10.27;;;7.05;;
54845;SDS011;53889;50.084;8.646;2024-03-22T13:52:31;10.00;;;6.82;;
54845;SDS011;53889;50.084;8.646;2024-03-22T13:54:58;11.10;;;6.80;;
54845;SDS011;53889;50.084;8.646;2024-03-22T13:57:26;13.38;;;7.30;;
54845;SDS011;53889;50.084;8.646;2024-03-22T13:59:53;10.73;;;7.00;;
54845;SDS011;53889;50.084;8.646;2024-03-22T14:02:19;10.35;;;7.53;;
54845;SDS011;53889;50.084;8.646;2024-03-22T14:04:46;12.07;;;7.72;;
54845;SDS011;53889;50.084;8.646;2024-03-22T14:07:14;10.55;;;7.55;;
54845;SDS011;53889;50.084;8.646;2024-03-22T14:09:41;13.68;;;8.15;;
54845;SDS011;53889;50.084;8.646;2024-03-22T14:12:08;12.35;;;8.23;;
54845;SDS011;53889;50.084;8.646;2024-03-22T14:14:35;10.73;;;7.90;;
54845;SDS011;53889;50.084;8.646;2024-03-22T14:17:00;10.90;;;7.72;;
54845;SDS011;53889;50.084;8.646;2024-03-22T14:19:38;12.48;;;7.90;;
54845;SDS011;53889;50.084;8.646;2024-03-22T14:22:03;11.88;;;8.27;;
54845;SDS011;53889;50.084;8.646;2024-03-22T14:24:31;13.88;;;7.72;;
54845;SDS011;53889;50.084;8.646;2024-03-22T14:26:58;12.32;;;8.07;;
54845;SDS011;53889;50.084;8.646;2024-03-22T14:29:25;12.82;;;8.15;;